sensor_id;sensor_type;location;lat;lon;timestamp;P1;durP1;ratioP1;P2;durP2;ratioP2
611;SDS011;293;53.888;11.464;2023-03-19T00:02:03;18.33;;;16.53;;
611;SDS011;293;53.888;11.464;2023-03-19T00:04:31;15.33;;;13.90;;
611;SDS011;293;53.888;11.464;2023-03-19T00:06:58;14.90;;;13.50;;
611;SDS011;293;53.888;11.464;2023-03-19T00:09:24;16.70;;;15.07;;
611;SDS011;293;53.888;11.464;2023-03-19T00:11:53;18.07;;;15.00;;
611;SDS011;293;53.888;11.464;2023-03-19T00:14:20;16.67;;;14.93;;
611;SDS011;293;53.888;11.464;2023-03-19T00:16:47;14.50;;;13.00;;
611;SDS011;293;53.888;11.464;2023-03-19T00:19:14;17.50;;;15.77;;
611;SDS011;293;53.888;11.464;2023-03-19T00:21:42;17.77;;;15.90;;
611;SDS011;293;53.888;11.464;2023-03-19T00:24:09;24.57;;;18.00;;
611;SDS011;293;53.888;11.464;2023-03-19T00:26:36;17.10;;;15.00;;
611;SDS011;293;53.888;11.464;2023-03-19T00:29:04;16.47;;;14.90;;
611;SDS011;293;53.888;11.464;2023-03-19T00:31:31;17.87;;;16.00;;
611;SDS011;293;53.888;11.464;2023-03-19T00:33:59;18.70;;;16.77;;
611;SDS011;293;53.888;11.464;2023-03-19T00:36:27;18.40;;;16.43;;
611;SDS011;293;53.888;11.464;2023-03-19T00:38:55;19.43;;;17.43;;
611;SDS011;293;53.888;11.464;2023-03-19T00:41:22;20.90;;;17.90;;
611;SDS011;293;53.888;11.464;2023-03-19T00:43:53;19.63;;;16.93;;
611;SDS011;293;53.888;11.464;2023-03-19T00:46:23;19.90;;;16.80;;
611;SDS011;293;53.888;11.464;2023-03-19T00:48:51;17.77;;;15.97;;
611;SDS011;293;53.888;11.464;2023-03-19T00:51:19;18.40;;;16.20;;
611;SDS011;293;53.888;11.464;2023-03-19T00:53:47;15.53;;;13.90;;
611;SDS011;293;53.888;11.464;2023-03-19T00:56:15;17.73;;;15.40;;
611;SDS011;293;53.888;11.464;2023-03-19T00:58:43;15.80;;;14.00;;
611;SDS011;293;53.888;11.464;2023-03-19T01:01:11;15.93;;;14.43;;
611;SDS011;293;53.888;11.464;2023-03-19T01:03:41;15.40;;;14.00;;
611;SDS011;293;53.888;11.464;2023-03-19T01:06:09;16.00;;;14.53;;
611;SDS011;293;53.888;11.464;2023-03-19T01:08:36;14.53;;;13.23;;
611;SDS011;293;53.888;11.464;2023-03-19T01:11:04;14.47;;;12.97;;
611;SDS011;293;53.888;11.464;2023-03-19T01:13:32;16.07;;;14.57;;
611;SDS011;293;53.888;11.464;2023-03-19T01:15:59;16.13;;;14.53;;
611;SDS011;293;53.888;11.464;2023-03-19T01:18:26;15.80;;;13.90;;
611;SDS011;293;53.888;11.464;2023-03-19T01:20:54;15.07;;;13.23;;
611;SDS011;293;53.888;11.464;2023-03-19T01:23:21;16.50;;;14.80;;
611;SDS011;293;53.888;11.464;2023-03-19T01:25:48;15.60;;;14.10;;
611;SDS011;293;53.888;11.464;2023-03-19T01:28:15;13.87;;;12.60;;
611;SDS011;293;53.888;11.464;2023-03-19T01:30:42;18.53;;;13.00;;
611;SDS011;293;53.888;11.464;2023-03-19T01:33:09;17.80;;;14.63;;
611;SDS011;293;53.888;11.464;2023-03-19T01:35:36;15.13;;;13.63;;
611;SDS011;293;53.888;11.464;2023-03-19T01:38:04;16.20;;;14.50;;
611;SDS011;293;53.888;11.464;2023-03-19T01:40:32;15.83;;;14.27;;
611;SDS011;293;53.888;11.464;2023-03-19T01:43:11;15.87;;;13.37;;
611;SDS011;293;53.888;11.464;2023-03-19T01:45:40;15.90;;;14.20;;
611;SDS011;293;53.888;11.464;2023-03-19T01:48:10;16.67;;;15.10;;
611;SDS011;293;53.888;11.464;2023-03-19T01:50:44;15.30;;;13.80;;
611;SDS011;293;53.888;11.464;2023-03-19T01:53:16;18.40;;;15.27;;
611;SDS011;293;53.888;11.464;2023-03-19T01:55:45;16.73;;;15.03;;
611;SDS011;293;53.888;11.464;2023-03-19T01:58:12;18.37;;;16.57;;
611;SDS011;293;53.888;11.464;2023-03-19T02:00:39;18.60;;;15.47;;
611;SDS011;293;53.888;11.464;2023-03-19T02:03:06;18.23;;;16.20;;
611;SDS011;293;53.888;11.464;2023-03-19T02:05:33;17.53;;;15.63;;
611;SDS011;293;53.888;11.464;2023-03-19T02:08:03;15.67;;;14.27;;
611;SDS011;293;53.888;11.464;2023-03-19T02:10:33;16.50;;;15.00;;
611;SDS011;293;53.888;11.464;2023-03-19T02:13:01;17.90;;;16.30;;
611;SDS011;293;53.888;11.464;2023-03-19T02:15:28;17.00;;;15.50;;
611;SDS011;293;53.888;11.464;2023-03-19T02:17:55;16.80;;;14.70;;
611;SDS011;293;53.888;11.464;2023-03-19T02:20:24;18.90;;;17.10;;
611;SDS011;293;53.888;11.464;2023-03-19T02:22:59;16.60;;;14.40;;
611;SDS011;293;53.888;11.464;2023-03-19T02:25:34;19.73;;;17.63;;
611;SDS011;293;53.888;11.464;2023-03-19T02:28:07;18.63;;;17.00;;
611;SDS011;293;53.888;11.464;2023-03-19T02:30:35;18.73;;;16.73;;
611;SDS011;293;53.888;11.464;2023-03-19T02:33:03;19.60;;;17.77;;
611;SDS011;293;53.888;11.464;2023-03-19T02:35:31;20.70;;;18.70;;
611;SDS011;293;53.888;11.464;2023-03-19T02:37:59;17.87;;;16.13;;
611;SDS011;293;53.888;11.464;2023-03-19T02:40:29;19.03;;;17.20;;
611;SDS011;293;53.888;11.464;2023-03-19T02:42:59;20.17;;;17.93;;
611;SDS011;293;53.888;11.464;2023-03-19T02:45:28;18.37;;;16.70;;
611;SDS011;293;53.888;11.464;2023-03-19T02:47:56;17.80;;;16.20;;
611;SDS011;293;53.888;11.464;2023-03-19T02:50:24;23.17;;;17.90;;
611;SDS011;293;53.888;11.464;2023-03-19T02:52:51;19.83;;;18.00;;
611;SDS011;293;53.888;11.464;2023-03-19T02:55:18;17.63;;;15.87;;
611;SDS011;293;53.888;11.464;2023-03-19T02:57:45;18.80;;;16.90;;
611;SDS011;293;53.888;11.464;2023-03-19T03:00:13;17.60;;;15.70;;
611;SDS011;293;53.888;11.464;2023-03-19T03:02:43;20.93;;;17.50;;
611;SDS011;293;53.888;11.464;2023-03-19T03:05:10;20.30;;;17.97;;
611;SDS011;293;53.888;11.464;2023-03-19T03:07:37;20.30;;;18.30;;
611;SDS011;293;53.888;11.464;2023-03-19T03:10:05;17.13;;;15.63;;
611;SDS011;293;53.888;11.464;2023-03-19T03:12:32;20.43;;;18.20;;
611;SDS011;293;53.888;11.464;2023-03-19T03:14:59;20.47;;;18.30;;
611;SDS011;293;53.888;11.464;2023-03-19T03:17:26;19.10;;;17.27;;
611;SDS011;293;53.888;11.464;2023-03-19T03:19:54;20.57;;;17.60;;
611;SDS011;293;53.888;11.464;2023-03-19T03:22:21;21.20;;;19.10;;
611;SDS011;293;53.888;11.464;2023-03-19T03:24:48;19.37;;;16.47;;
611;SDS011;293;53.888;11.464;2023-03-19T03:27:15;21.17;;;18.97;;
611;SDS011;293;53.888;11.464;2023-03-19T03:29:42;23.60;;;21.30;;
611;SDS011;293;53.888;11.464;2023-03-19T03:32:09;22.40;;;20.17;;
611;SDS011;293;53.888;11.464;2023-03-19T03:34:36;24.40;;;21.90;;
611;SDS011;293;53.888;11.464;2023-03-19T03:37:05;29.47;;;21.50;;
611;SDS011;293;53.888;11.464;2023-03-19T03:39:32;23.20;;;20.80;;
611;SDS011;293;53.888;11.464;2023-03-19T03:41:59;23.73;;;21.27;;
611;SDS011;293;53.888;11.464;2023-03-19T03:44:25;22.77;;;20.50;;
611;SDS011;293;53.888;11.464;2023-03-19T03:46:52;24.13;;;21.80;;
611;SDS011;293;53.888;11.464;2023-03-19T03:49:19;23.57;;;19.33;;
611;SDS011;293;53.888;11.464;2023-03-19T03:51:46;23.80;;;21.30;;
611;SDS011;293;53.888;11.464;2023-03-19T03:54:15;25.17;;;22.63;;
611;SDS011;293;53.888;11.464;2023-03-19T03:56:42;24.77;;;22.17;;
611;SDS011;293;53.888;11.464;2023-03-19T03:59:08;21.63;;;19.37;;
611;SDS011;293;53.888;11.464;2023-03-19T04:01:35;23.47;;;21.03;;
611;SDS011;293;53.888;11.464;2023-03-19T04:04:02;24.60;;;22.30;;
611;SDS011;293;53.888;11.464;2023-03-19T04:06:29;24.37;;;22.03;;
611;SDS011;293;53.888;11.464;2023-03-19T04:08:56;23.43;;;20.77;;
611;SDS011;293;53.888;11.464;2023-03-19T04:11:24;24.47;;;21.40;;
611;SDS011;293;53.888;11.464;2023-03-19T04:13:53;24.43;;;21.93;;
611;SDS011;293;53.888;11.464;2023-03-19T04:16:20;21.43;;;19.23;;
611;SDS011;293;53.888;11.464;2023-03-19T04:18:47;22.50;;;20.10;;
611;SDS011;293;53.888;11.464;2023-03-19T04:21:14;23.40;;;21.20;;
611;SDS011;293;53.888;11.464;2023-03-19T04:23:41;23.80;;;21.50;;
611;SDS011;293;53.888;11.464;2023-03-19T04:26:08;22.47;;;20.17;;
611;SDS011;293;53.888;11.464;2023-03-19T04:28:37;23.17;;;20.93;;
611;SDS011;293;53.888;11.464;2023-03-19T04:31:05;27.43;;;21.97;;
611;SDS011;293;53.888;11.464;2023-03-19T04:33:33;21.73;;;19.70;;
611;SDS011;293;53.888;11.464;2023-03-19T04:36:00;24.23;;;21.70;;
611;SDS011;293;53.888;11.464;2023-03-19T04:38:28;24.63;;;22.33;;
611;SDS011;293;53.888;11.464;2023-03-19T04:40:56;21.70;;;19.53;;
611;SDS011;293;53.888;11.464;2023-03-19T04:43:23;20.47;;;18.40;;
611;SDS011;293;53.888;11.464;2023-03-19T04:45:51;25.03;;;22.47;;
611;SDS011;293;53.888;11.464;2023-03-19T04:48:18;22.40;;;20.37;;
611;SDS011;293;53.888;11.464;2023-03-19T04:50:46;20.53;;;18.63;;
611;SDS011;293;53.888;11.464;2023-03-19T04:53:16;22.80;;;20.63;;
611;SDS011;293;53.888;11.464;2023-03-19T04:55:44;21.07;;;18.97;;
611;SDS011;293;53.888;11.464;2023-03-19T04:58:11;21.63;;;19.40;;
611;SDS011;293;53.888;11.464;2023-03-19T05:00:38;22.30;;;19.83;;
611;SDS011;293;53.888;11.464;2023-03-19T05:03:06;25.40;;;21.37;;
611;SDS011;293;53.888;11.464;2023-03-19T05:05:33;22.37;;;20.17;;
611;SDS011;293;53.888;11.464;2023-03-19T05:08:00;20.63;;;18.43;;
611;SDS011;293;53.888;11.464;2023-03-19T05:10:27;22.67;;;20.37;;
611;SDS011;293;53.888;11.464;2023-03-19T05:12:54;23.20;;;20.90;;
611;SDS011;293;53.888;11.464;2023-03-19T05:15:21;23.17;;;20.77;;
611;SDS011;293;53.888;11.464;2023-03-19T05:17:48;24.93;;;22.53;;
611;SDS011;293;53.888;11.464;2023-03-19T05:20:16;21.17;;;19.27;;
611;SDS011;293;53.888;11.464;2023-03-19T05:22:43;22.63;;;20.03;;
611;SDS011;293;53.888;11.464;2023-03-19T05:25:11;24.00;;;21.47;;
611;SDS011;293;53.888;11.464;2023-03-19T05:27:38;25.70;;;21.60;;
611;SDS011;293;53.888;11.464;2023-03-19T05:30:06;24.50;;;22.03;;
611;SDS011;293;53.888;11.464;2023-03-19T05:32:33;25.70;;;23.17;;
611;SDS011;293;53.888;11.464;2023-03-19T05:35:01;26.90;;;24.10;;
611;SDS011;293;53.888;11.464;2023-03-19T05:37:29;26.30;;;23.47;;
611;SDS011;293;53.888;11.464;2023-03-19T05:39:56;26.37;;;23.37;;
611;SDS011;293;53.888;11.464;2023-03-19T05:42:23;29.87;;;25.87;;
611;SDS011;293;53.888;11.464;2023-03-19T05:44:50;26.10;;;23.43;;
611;SDS011;293;53.888;11.464;2023-03-19T05:47:17;25.97;;;23.37;;
611;SDS011;293;53.888;11.464;2023-03-19T05:49:44;26.83;;;24.20;;
611;SDS011;293;53.888;11.464;2023-03-19T05:52:11;26.47;;;23.97;;
611;SDS011;293;53.888;11.464;2023-03-19T05:54:39;27.83;;;24.13;;
611;SDS011;293;53.888;11.464;2023-03-19T05:57:06;29.30;;;26.40;;
611;SDS011;293;53.888;11.464;2023-03-19T05:59:33;34.50;;;26.33;;
611;SDS011;293;53.888;11.464;2023-03-19T06:02:01;28.03;;;25.40;;
611;SDS011;293;53.888;11.464;2023-03-19T06:04:28;28.87;;;25.43;;
611;SDS011;293;53.888;11.464;2023-03-19T06:06:55;31.50;;;26.23;;
611;SDS011;293;53.888;11.464;2023-03-19T06:09:22;27.47;;;24.67;;
611;SDS011;293;53.888;11.464;2023-03-19T06:11:50;29.57;;;26.23;;
611;SDS011;293;53.888;11.464;2023-03-19T06:14:17;26.70;;;24.00;;
611;SDS011;293;53.888;11.464;2023-03-19T06:16:44;27.10;;;24.30;;
611;SDS011;293;53.888;11.464;2023-03-19T06:19:11;29.70;;;26.67;;
611;SDS011;293;53.888;11.464;2023-03-19T06:21:38;28.83;;;24.13;;
611;SDS011;293;53.888;11.464;2023-03-19T06:24:05;28.93;;;25.87;;
611;SDS011;293;53.888;11.464;2023-03-19T06:26:32;26.67;;;23.77;;
611;SDS011;293;53.888;11.464;2023-03-19T06:29:01;26.80;;;24.07;;
611;SDS011;293;53.888;11.464;2023-03-19T06:31:28;25.60;;;23.13;;
611;SDS011;293;53.888;11.464;2023-03-19T06:33:55;29.90;;;26.70;;
611;SDS011;293;53.888;11.464;2023-03-19T06:36:22;112.00;;;90.63;;
611;SDS011;293;53.888;11.464;2023-03-19T06:38:48;25.70;;;23.03;;
611;SDS011;293;53.888;11.464;2023-03-19T06:41:16;22.20;;;20.10;;
611;SDS011;293;53.888;11.464;2023-03-19T06:43:43;22.17;;;19.90;;
611;SDS011;293;53.888;11.464;2023-03-19T06:46:11;23.33;;;21.00;;
611;SDS011;293;53.888;11.464;2023-03-19T06:48:38;25.23;;;22.30;;
611;SDS011;293;53.888;11.464;2023-03-19T06:51:05;25.47;;;21.73;;
611;SDS011;293;53.888;11.464;2023-03-19T06:53:32;27.73;;;24.93;;
611;SDS011;293;53.888;11.464;2023-03-19T06:55:59;27.33;;;24.87;;
611;SDS011;293;53.888;11.464;2023-03-19T06:58:26;24.80;;;22.60;;
611;SDS011;293;53.888;11.464;2023-03-19T07:00:53;26.20;;;23.70;;
611;SDS011;293;53.888;11.464;2023-03-19T07:03:22;23.60;;;21.33;;
611;SDS011;293;53.888;11.464;2023-03-19T07:05:49;29.40;;;23.07;;
611;SDS011;293;53.888;11.464;2023-03-19T07:08:16;25.50;;;23.10;;
611;SDS011;293;53.888;11.464;2023-03-19T07:10:43;21.13;;;18.97;;
611;SDS011;293;53.888;11.464;2023-03-19T07:13:10;22.33;;;20.10;;
611;SDS011;293;53.888;11.464;2023-03-19T07:15:37;19.23;;;17.43;;
611;SDS011;293;53.888;11.464;2023-03-19T07:18:05;17.70;;;15.90;;
611;SDS011;293;53.888;11.464;2023-03-19T07:20:33;18.67;;;16.77;;
611;SDS011;293;53.888;11.464;2023-03-19T07:23:00;18.60;;;16.70;;
611;SDS011;293;53.888;11.464;2023-03-19T07:25:27;17.33;;;15.63;;
611;SDS011;293;53.888;11.464;2023-03-19T07:27:54;17.00;;;15.27;;
611;SDS011;293;53.888;11.464;2023-03-19T07:30:21;15.47;;;14.07;;
611;SDS011;293;53.888;11.464;2023-03-19T07:32:48;17.30;;;15.23;;
611;SDS011;293;53.888;11.464;2023-03-19T07:35:15;14.03;;;12.60;;
611;SDS011;293;53.888;11.464;2023-03-19T07:37:43;14.70;;;13.40;;
611;SDS011;293;53.888;11.464;2023-03-19T07:40:10;14.67;;;13.37;;
611;SDS011;293;53.888;11.464;2023-03-19T07:42:37;14.33;;;12.87;;
611;SDS011;293;53.888;11.464;2023-03-19T07:45:05;13.40;;;12.20;;
611;SDS011;293;53.888;11.464;2023-03-19T07:47:33;12.80;;;11.50;;
611;SDS011;293;53.888;11.464;2023-03-19T07:50:00;12.23;;;11.03;;
611;SDS011;293;53.888;11.464;2023-03-19T07:52:28;38.17;;;34.07;;
611;SDS011;293;53.888;11.464;2023-03-19T07:54:56;62.87;;;50.67;;
611;SDS011;293;53.888;11.464;2023-03-19T07:57:23;54.80;;;49.33;;
611;SDS011;293;53.888;11.464;2023-03-19T07:59:51;11.93;;;10.80;;
611;SDS011;293;53.888;11.464;2023-03-19T08:02:18;10.50;;;9.10;;
611;SDS011;293;53.888;11.464;2023-03-19T08:04:45;8.70;;;8.00;;
611;SDS011;293;53.888;11.464;2023-03-19T08:07:11;9.33;;;8.13;;
611;SDS011;293;53.888;11.464;2023-03-19T08:09:40;10.43;;;9.63;;
611;SDS011;293;53.888;11.464;2023-03-19T08:12:08;9.60;;;8.80;;
611;SDS011;293;53.888;11.464;2023-03-19T08:14:35;8.90;;;8.17;;
611;SDS011;293;53.888;11.464;2023-03-19T08:17:02;8.40;;;7.57;;
611;SDS011;293;53.888;11.464;2023-03-19T08:19:30;8.17;;;7.47;;
611;SDS011;293;53.888;11.464;2023-03-19T08:21:57;7.77;;;7.03;;
611;SDS011;293;53.888;11.464;2023-03-19T08:24:24;7.13;;;6.43;;
611;SDS011;293;53.888;11.464;2023-03-19T08:26:51;7.03;;;6.47;;
611;SDS011;293;53.888;11.464;2023-03-19T08:29:19;6.33;;;5.63;;
611;SDS011;293;53.888;11.464;2023-03-19T08:31:46;6.07;;;5.57;;
611;SDS011;293;53.888;11.464;2023-03-19T08:34:12;7.63;;;6.47;;
611;SDS011;293;53.888;11.464;2023-03-19T08:36:39;7.13;;;6.53;;
611;SDS011;293;53.888;11.464;2023-03-19T08:39:06;5.70;;;5.30;;
611;SDS011;293;53.888;11.464;2023-03-19T08:41:33;6.13;;;5.67;;
611;SDS011;293;53.888;11.464;2023-03-19T08:44:00;7.00;;;6.40;;
611;SDS011;293;53.888;11.464;2023-03-19T08:46:29;6.60;;;6.00;;
611;SDS011;293;53.888;11.464;2023-03-19T08:48:57;7.43;;;6.83;;
611;SDS011;293;53.888;11.464;2023-03-19T08:51:24;6.90;;;6.23;;
611;SDS011;293;53.888;11.464;2023-03-19T08:53:52;6.33;;;5.77;;
611;SDS011;293;53.888;11.464;2023-03-19T08:56:19;7.83;;;7.17;;
611;SDS011;293;53.888;11.464;2023-03-19T08:58:46;8.37;;;7.53;;
611;SDS011;293;53.888;11.464;2023-03-19T09:01:13;6.57;;;5.97;;
611;SDS011;293;53.888;11.464;2023-03-19T09:03:42;6.47;;;5.97;;
611;SDS011;293;53.888;11.464;2023-03-19T09:06:11;6.43;;;5.83;;
611;SDS011;293;53.888;11.464;2023-03-19T09:08:39;7.40;;;6.27;;
611;SDS011;293;53.888;11.464;2023-03-19T09:11:07;7.20;;;6.60;;
611;SDS011;293;53.888;11.464;2023-03-19T09:13:35;6.67;;;6.07;;
611;SDS011;293;53.888;11.464;2023-03-19T09:16:02;7.27;;;6.70;;
611;SDS011;293;53.888;11.464;2023-03-19T09:18:29;6.27;;;5.77;;
611;SDS011;293;53.888;11.464;2023-03-19T09:20:58;6.20;;;5.60;;
611;SDS011;293;53.888;11.464;2023-03-19T09:23:25;6.83;;;6.13;;
611;SDS011;293;53.888;11.464;2023-03-19T09:25:52;5.77;;;5.27;;
611;SDS011;293;53.888;11.464;2023-03-19T09:28:20;6.20;;;5.60;;
611;SDS011;293;53.888;11.464;2023-03-19T09:30:47;6.13;;;5.50;;
611;SDS011;293;53.888;11.464;2023-03-19T09:33:15;6.40;;;5.80;;
611;SDS011;293;53.888;11.464;2023-03-19T09:35:47;6.60;;;6.10;;
611;SDS011;293;53.888;11.464;2023-03-19T09:38:18;6.60;;;6.00;;
611;SDS011;293;53.888;11.464;2023-03-19T09:40:46;6.90;;;6.40;;
611;SDS011;293;53.888;11.464;2023-03-19T09:43:23;6.87;;;6.20;;
611;SDS011;293;53.888;11.464;2023-03-19T09:46:00;5.90;;;5.50;;
611;SDS011;293;53.888;11.464;2023-03-19T09:48:34;6.00;;;5.50;;
611;SDS011;293;53.888;11.464;2023-03-19T09:51:09;5.97;;;5.47;;
611;SDS011;293;53.888;11.464;2023-03-19T09:53:44;6.10;;;5.53;;
611;SDS011;293;53.888;11.464;2023-03-19T09:56:16;7.93;;;6.33;;
611;SDS011;293;53.888;11.464;2023-03-19T09:58:44;4.77;;;4.37;;
611;SDS011;293;53.888;11.464;2023-03-19T10:01:17;6.90;;;4.93;;
611;SDS011;293;53.888;11.464;2023-03-19T10:03:56;6.13;;;5.63;;
611;SDS011;293;53.888;11.464;2023-03-19T10:06:35;5.50;;;5.00;;
611;SDS011;293;53.888;11.464;2023-03-19T10:12:04;6.40;;;5.40;;
611;SDS011;293;53.888;11.464;2023-03-19T10:14:49;5.70;;;5.20;;
611;SDS011;293;53.888;11.464;2023-03-19T10:17:29;6.27;;;5.67;;
611;SDS011;293;53.888;11.464;2023-03-19T10:20:00;6.13;;;5.00;;
611;SDS011;293;53.888;11.464;2023-03-19T10:22:32;7.93;;;5.90;;
611;SDS011;293;53.888;11.464;2023-03-19T10:25:04;5.20;;;4.80;;
611;SDS011;293;53.888;11.464;2023-03-19T10:27:35;6.10;;;5.57;;
611;SDS011;293;53.888;11.464;2023-03-19T10:30:10;7.00;;;6.37;;
611;SDS011;293;53.888;11.464;2023-03-19T10:32:39;6.10;;;5.50;;
611;SDS011;293;53.888;11.464;2023-03-19T10:35:10;7.23;;;6.10;;
611;SDS011;293;53.888;11.464;2023-03-19T10:37:44;4.50;;;4.13;;
611;SDS011;293;53.888;11.464;2023-03-19T10:40:16;5.67;;;5.10;;
611;SDS011;293;53.888;11.464;2023-03-19T10:42:52;6.13;;;5.53;;
611;SDS011;293;53.888;11.464;2023-03-19T10:45:30;5.20;;;4.80;;
611;SDS011;293;53.888;11.464;2023-03-19T10:47:58;4.73;;;4.30;;
611;SDS011;293;53.888;11.464;2023-03-19T10:50:27;7.37;;;5.30;;
611;SDS011;293;53.888;11.464;2023-03-19T10:53:01;5.43;;;4.77;;
611;SDS011;293;53.888;11.464;2023-03-19T10:55:32;5.20;;;4.80;;
611;SDS011;293;53.888;11.464;2023-03-19T10:58:03;7.10;;;5.70;;
611;SDS011;293;53.888;11.464;2023-03-19T11:00:32;6.90;;;5.13;;
611;SDS011;293;53.888;11.464;2023-03-19T11:02:59;7.63;;;5.63;;
611;SDS011;293;53.888;11.464;2023-03-19T11:05:29;6.17;;;5.67;;
611;SDS011;293;53.888;11.464;2023-03-19T11:07:57;6.97;;;5.60;;
611;SDS011;293;53.888;11.464;2023-03-19T11:10:26;6.10;;;5.60;;
611;SDS011;293;53.888;11.464;2023-03-19T11:12:56;6.53;;;5.40;;
611;SDS011;293;53.888;11.464;2023-03-19T11:15:27;5.63;;;5.20;;
611;SDS011;293;53.888;11.464;2023-03-19T11:17:58;6.43;;;5.77;;
611;SDS011;293;53.888;11.464;2023-03-19T11:20:27;5.90;;;5.40;;
611;SDS011;293;53.888;11.464;2023-03-19T11:22:58;5.50;;;5.00;;
611;SDS011;293;53.888;11.464;2023-03-19T11:25:27;6.17;;;5.53;;
611;SDS011;293;53.888;11.464;2023-03-19T11:27:58;6.33;;;5.73;;
611;SDS011;293;53.888;11.464;2023-03-19T11:30:27;5.17;;;4.80;;
611;SDS011;293;53.888;11.464;2023-03-19T11:36:04;6.60;;;5.90;;
611;SDS011;293;53.888;11.464;2023-03-19T11:38:39;8.47;;;6.20;;
611;SDS011;293;53.888;11.464;2023-03-19T11:41:18;6.00;;;5.10;;
611;SDS011;293;53.888;11.464;2023-03-19T11:43:56;5.60;;;5.10;;
611;SDS011;293;53.888;11.464;2023-03-19T11:46:35;5.20;;;4.80;;
611;SDS011;293;53.888;11.464;2023-03-19T11:49:16;7.97;;;4.93;;
611;SDS011;293;53.888;11.464;2023-03-19T11:51:56;6.87;;;5.00;;
611;SDS011;293;53.888;11.464;2023-03-19T11:54:31;3.93;;;3.60;;
611;SDS011;293;53.888;11.464;2023-03-19T11:57:10;5.83;;;4.80;;
611;SDS011;293;53.888;11.464;2023-03-19T11:59:50;5.40;;;5.00;;
611;SDS011;293;53.888;11.464;2023-03-19T12:02:34;7.10;;;5.50;;
611;SDS011;293;53.888;11.464;2023-03-19T12:05:33;5.63;;;5.13;;
611;SDS011;293;53.888;11.464;2023-03-19T12:08:14;6.30;;;5.70;;
611;SDS011;293;53.888;11.464;2023-03-19T12:10:51;7.03;;;5.40;;
611;SDS011;293;53.888;11.464;2023-03-19T12:13:29;9.00;;;4.30;;
611;SDS011;293;53.888;11.464;2023-03-19T12:16:10;6.40;;;5.80;;
611;SDS011;293;53.888;11.464;2023-03-19T12:18:47;4.90;;;4.20;;
611;SDS011;293;53.888;11.464;2023-03-19T12:21:27;8.27;;;4.57;;
611;SDS011;293;53.888;11.464;2023-03-19T12:24:02;4.60;;;3.40;;
611;SDS011;293;53.888;11.464;2023-03-19T12:26:34;7.00;;;5.10;;
611;SDS011;293;53.888;11.464;2023-03-19T12:29:13;5.80;;;5.30;;
611;SDS011;293;53.888;11.464;2023-03-19T12:31:49;6.13;;;5.30;;
611;SDS011;293;53.888;11.464;2023-03-19T12:34:28;4.83;;;4.43;;
611;SDS011;293;53.888;11.464;2023-03-19T12:37:05;4.37;;;3.97;;
611;SDS011;293;53.888;11.464;2023-03-19T12:39:40;4.70;;;4.30;;
611;SDS011;293;53.888;11.464;2023-03-19T12:42:13;4.40;;;3.97;;
611;SDS011;293;53.888;11.464;2023-03-19T12:44:45;7.63;;;4.30;;
611;SDS011;293;53.888;11.464;2023-03-19T12:47:18;5.03;;;4.60;;
611;SDS011;293;53.888;11.464;2023-03-19T12:49:50;4.67;;;4.27;;
611;SDS011;293;53.888;11.464;2023-03-19T12:52:23;4.43;;;4.07;;
611;SDS011;293;53.888;11.464;2023-03-19T12:54:54;9.63;;;5.37;;
611;SDS011;293;53.888;11.464;2023-03-19T12:57:26;46.63;;;42.03;;
611;SDS011;293;53.888;11.464;2023-03-19T13:00:00;8.30;;;7.50;;
611;SDS011;293;53.888;11.464;2023-03-19T13:02:33;11.33;;;5.40;;
611;SDS011;293;53.888;11.464;2023-03-19T13:05:06;5.27;;;4.77;;
611;SDS011;293;53.888;11.464;2023-03-19T13:07:48;8.03;;;5.53;;
611;SDS011;293;53.888;11.464;2023-03-19T13:10:21;5.80;;;5.27;;
611;SDS011;293;53.888;11.464;2023-03-19T13:12:49;5.03;;;4.37;;
611;SDS011;293;53.888;11.464;2023-03-19T13:15:19;6.60;;;5.30;;
611;SDS011;293;53.888;11.464;2023-03-19T13:17:55;6.40;;;5.80;;
611;SDS011;293;53.888;11.464;2023-03-19T13:20:30;5.47;;;4.93;;
611;SDS011;293;53.888;11.464;2023-03-19T13:23:16;5.33;;;4.70;;
611;SDS011;293;53.888;11.464;2023-03-19T13:25:47;5.00;;;4.60;;
611;SDS011;293;53.888;11.464;2023-03-19T13:28:18;5.80;;;5.20;;
611;SDS011;293;53.888;11.464;2023-03-19T13:31:00;5.20;;;4.73;;
611;SDS011;293;53.888;11.464;2023-03-19T13:33:29;6.30;;;4.60;;
611;SDS011;293;53.888;11.464;2023-03-19T13:35:59;7.53;;;5.00;;
611;SDS011;293;53.888;11.464;2023-03-19T13:38:32;5.23;;;4.17;;
611;SDS011;293;53.888;11.464;2023-03-19T13:41:04;5.47;;;4.93;;
611;SDS011;293;53.888;11.464;2023-03-19T13:43:52;5.73;;;4.13;;
611;SDS011;293;53.888;11.464;2023-03-19T13:46:25;4.80;;;4.20;;
611;SDS011;293;53.888;11.464;2023-03-19T13:49:07;7.60;;;3.97;;
611;SDS011;293;53.888;11.464;2023-03-19T13:51:46;5.90;;;3.77;;
611;SDS011;293;53.888;11.464;2023-03-19T13:54:15;5.80;;;4.60;;
611;SDS011;293;53.888;11.464;2023-03-19T13:59:45;5.60;;;5.10;;
611;SDS011;293;53.888;11.464;2023-03-19T14:05:18;5.07;;;4.17;;
611;SDS011;293;53.888;11.464;2023-03-19T14:07:47;4.73;;;3.63;;
611;SDS011;293;53.888;11.464;2023-03-19T14:10:19;5.10;;;4.67;;
611;SDS011;293;53.888;11.464;2023-03-19T14:12:51;6.03;;;5.33;;
611;SDS011;293;53.888;11.464;2023-03-19T14:15:28;9.07;;;8.17;;
611;SDS011;293;53.888;11.464;2023-03-19T14:17:57;9.40;;;8.50;;
611;SDS011;293;53.888;11.464;2023-03-19T14:20:28;10.17;;;9.27;;
611;SDS011;293;53.888;11.464;2023-03-19T14:23:09;10.87;;;9.87;;
611;SDS011;293;53.888;11.464;2023-03-19T14:25:52;10.73;;;9.57;;
611;SDS011;293;53.888;11.464;2023-03-19T14:28:26;9.47;;;8.77;;
611;SDS011;293;53.888;11.464;2023-03-19T14:30:59;10.53;;;8.33;;
611;SDS011;293;53.888;11.464;2023-03-19T14:33:31;10.57;;;9.50;;
611;SDS011;293;53.888;11.464;2023-03-19T14:36:06;11.67;;;10.47;;
611;SDS011;293;53.888;11.464;2023-03-19T14:38:42;11.10;;;10.20;;
611;SDS011;293;53.888;11.464;2023-03-19T14:41:15;9.70;;;8.87;;
611;SDS011;293;53.888;11.464;2023-03-19T14:43:51;10.57;;;9.47;;
611;SDS011;293;53.888;11.464;2023-03-19T14:46:45;10.43;;;9.43;;
611;SDS011;293;53.888;11.464;2023-03-19T14:52:23;11.40;;;10.30;;
611;SDS011;293;53.888;11.464;2023-03-19T14:54:53;17.03;;;13.37;;
611;SDS011;293;53.888;11.464;2023-03-19T14:57:25;18.30;;;13.70;;
611;SDS011;293;53.888;11.464;2023-03-19T14:59:53;37.13;;;16.40;;
611;SDS011;293;53.888;11.464;2023-03-19T15:05:04;21.70;;;12.50;;
611;SDS011;293;53.888;11.464;2023-03-19T15:07:35;15.10;;;11.97;;
611;SDS011;293;53.888;11.464;2023-03-19T15:10:06;16.60;;;11.63;;
611;SDS011;293;53.888;11.464;2023-03-19T15:18:40;14.00;;;12.70;;
611;SDS011;293;53.888;11.464;2023-03-19T15:21:07;10.60;;;9.60;;
611;SDS011;293;53.888;11.464;2023-03-19T15:23:36;8.00;;;7.30;;
611;SDS011;293;53.888;11.464;2023-03-19T15:26:05;12.00;;;9.57;;
611;SDS011;293;53.888;11.464;2023-03-19T15:28:43;15.60;;;13.97;;
611;SDS011;293;53.888;11.464;2023-03-19T15:31:12;7.27;;;5.00;;
611;SDS011;293;53.888;11.464;2023-03-19T15:33:40;6.70;;;4.80;;
611;SDS011;293;53.888;11.464;2023-03-19T15:36:07;5.73;;;4.13;;
611;SDS011;293;53.888;11.464;2023-03-19T15:38:44;5.23;;;2.80;;
611;SDS011;293;53.888;11.464;2023-03-19T15:41:13;7.07;;;2.80;;
611;SDS011;293;53.888;11.464;2023-03-19T15:43:42;3.70;;;2.47;;
611;SDS011;293;53.888;11.464;2023-03-19T15:46:10;4.00;;;2.50;;
611;SDS011;293;53.888;11.464;2023-03-19T15:48:40;2.70;;;2.50;;
611;SDS011;293;53.888;11.464;2023-03-19T15:51:10;3.00;;;2.70;;
611;SDS011;293;53.888;11.464;2023-03-19T15:53:39;2.60;;;2.40;;